sensor_id;sensor_type;location;lat;lon;timestamp;pressure;altitude;pressure_sealevel;temperature;humidity
10840;BME280;5473;42.706;23.328;2023-03-01T00:01:17;-14062.97;;;-142.93;100.00
10840;BME280;5473;42.706;23.328;2023-03-01T00:03:45;-14062.97;;;-142.93;100.00
10840;BME280;5473;42.706;23.328;2023-03-01T00:06:13;-14062.97;;;-142.93;100.00
10840;BME280;5473;42.706;23.328;2023-03-01T00:08:40;-14062.97;;;-142.93;100.00
10840;BME280;5473;42.706;23.328;2023-03-01T00:11:09;-14062.97;;;-142.93;100.00
10840;BME280;5473;42.706;23.328;2023-03-01T00:13:36;-14062.97;;;-142.93;100.00
10840;BME280;5473;42.706;23.328;2023-03-01T00:16:04;-14062.97;;;-142.93;100.00
10840;BME280;5473;42.706;23.328;2023-03-01T00:18:31;-14062.97;;;-142.93;100.00
10840;BME280;5473;42.706;23.328;2023-03-01T00:20:58;-13812.22;;;-142.93;100.00
10840;BME280;5473;42.706;23.328;2023-03-01T00:23:26;-13812.22;;;-142.93;100.00
10840;BME280;5473;42.706;23.328;2023-03-01T00:25:54;-13812.22;;;-142.93;100.00
10840;BME280;5473;42.706;23.328;2023-03-01T00:28:20;-13812.22;;;-142.93;100.00
10840;BME280;5473;42.706;23.328;2023-03-01T00:30:47;-13812.22;;;-142.93;100.00
10840;BME280;5473;42.706;23.328;2023-03-01T00:33:14;-13812.22;;;-142.93;100.00
10840;BME280;5473;42.706;23.328;2023-03-01T00:35:41;-13812.22;;;-142.93;100.00
10840;BME280;5473;42.706;23.328;2023-03-01T00:38:08;-13812.22;;;-142.93;100.00
10840;BME280;5473;42.706;23.328;2023-03-01T00:40:36;-14062.97;;;-142.93;100.00
10840;BME280;5473;42.706;23.328;2023-03-01T00:43:03;-14062.97;;;-142.93;100.00
10840;BME280;5473;42.706;23.328;2023-03-01T00:45:32;-14062.97;;;-142.93;100.00
10840;BME280;5473;42.706;23.328;2023-03-01T00:47:59;-14062.97;;;-142.93;100.00
10840;BME280;5473;42.706;23.328;2023-03-01T00:50:26;-14062.97;;;-142.93;100.00
10840;BME280;5473;42.706;23.328;2023-03-01T00:52:53;-14062.97;;;-142.93;100.00
10840;BME280;5473;42.706;23.328;2023-03-01T00:55:20;-14062.97;;;-142.93;100.00
10840;BME280;5473;42.706;23.328;2023-03-01T00:57:48;-14062.97;;;-142.93;100.00
10840;BME280;5473;42.706;23.328;2023-03-01T01:00:16;-14062.97;;;-142.93;100.00
10840;BME280;5473;42.706;23.328;2023-03-01T01:02:43;-14062.97;;;-142.93;100.00
10840;BME280;5473;42.706;23.328;2023-03-01T01:05:10;-14062.97;;;-142.93;100.00
10840;BME280;5473;42.706;23.328;2023-03-01T01:07:37;-14062.97;;;-142.93;100.00
10840;BME280;5473;42.706;23.328;2023-03-01T01:10:05;-14062.97;;;-142.93;100.00
10840;BME280;5473;42.706;23.328;2023-03-01T01:12:32;-14062.97;;;-142.93;100.00
10840;BME280;5473;42.706;23.328;2023-03-01T01:15:00;-14062.97;;;-142.93;100.00
10840;BME280;5473;42.706;23.328;2023-03-01T01:17:27;-14062.97;;;-142.93;100.00
10840;BME280;5473;42.706;23.328;2023-03-01T01:19:54;-14062.97;;;-142.93;100.00
10840;BME280;5473;42.706;23.328;2023-03-01T01:22:20;-14062.97;;;-142.93;100.00
10840;BME280;5473;42.706;23.328;2023-03-01T01:24:47;-14062.97;;;-142.93;100.00
10840;BME280;5473;42.706;23.328;2023-03-01T01:27:14;-14062.97;;;-142.93;100.00
10840;BME280;5473;42.706;23.328;2023-03-01T01:29:41;-14062.97;;;-142.93;100.00
10840;BME280;5473;42.706;23.328;2023-03-01T01:32:09;-13812.22;;;-142.93;100.00
10840;BME280;5473;42.706;23.328;2023-03-01T01:34:36;-13812.22;;;-142.93;100.00
10840;BME280;5473;42.706;23.328;2023-03-01T01:37:03;-13812.22;;;-142.93;100.00
10840;BME280;5473;42.706;23.328;2023-03-01T01:39:33;-13812.22;;;-142.93;100.00
10840;BME280;5473;42.706;23.328;2023-03-01T01:42:00;-13812.22;;;-142.93;100.00
10840;BME280;5473;42.706;23.328;2023-03-01T01:44:28;-13561.44;;;-142.93;100.00
10840;BME280;5473;42.706;23.328;2023-03-01T01:46:57;-13561.44;;;-142.93;100.00
10840;BME280;5473;42.706;23.328;2023-03-01T01:49:31;-13561.44;;;-142.93;100.00
10840;BME280;5473;42.706;23.328;2023-03-01T01:52:09;-13310.63;;;-142.93;100.00
10840;BME280;5473;42.706;23.328;2023-03-01T01:54:44;-13310.63;;;-142.93;100.00
10840;BME280;5473;42.706;23.328;2023-03-01T01:57:17;-13310.63;;;-142.93;100.00
10840;BME280;5473;42.706;23.328;2023-03-01T01:59:48;-13310.63;;;-142.93;100.00
10840;BME280;5473;42.706;23.328;2023-03-01T02:02:16;-13310.63;;;-142.93;100.00
10840;BME280;5473;42.706;23.328;2023-03-01T02:04:44;-13059.81;;;-142.93;100.00
10840;BME280;5473;42.706;23.328;2023-03-01T02:07:16;-13059.81;;;-142.93;100.00
10840;BME280;5473;42.706;23.328;2023-03-01T02:09:46;-13059.81;;;-142.93;100.00
10840;BME280;5473;42.706;23.328;2023-03-01T02:12:14;-13059.81;;;-142.93;100.00
10840;BME280;5473;42.706;23.328;2023-03-01T02:14:42;-12808.97;;;-142.93;100.00
10840;BME280;5473;42.706;23.328;2023-03-01T02:17:09;-12808.97;;;-142.93;100.00
10840;BME280;5473;42.706;23.328;2023-03-01T02:19:47;-12558.09;;;-142.93;100.00
10840;BME280;5473;42.706;23.328;2023-03-01T02:22:22;-12558.09;;;-142.93;100.00
10840;BME280;5473;42.706;23.328;2023-03-01T02:24:59;-12558.09;;;-142.93;100.00
10840;BME280;5473;42.706;23.328;2023-03-01T02:27:35;-12558.09;;;-142.93;100.00
10840;BME280;5473;42.706;23.328;2023-03-01T02:30:07;-12558.09;;;-142.93;100.00
10840;BME280;5473;42.706;23.328;2023-03-01T02:32:38;-12558.09;;;-142.93;100.00
10840;BME280;5473;42.706;23.328;2023-03-01T02:35:08;-12558.09;;;-142.93;100.00
10840;BME280;5473;42.706;23.328;2023-03-01T02:37:36;-12558.09;;;-142.93;100.00
10840;BME280;5473;42.706;23.328;2023-03-01T02:40:08;-12808.97;;;-142.93;100.00
10840;BME280;5473;42.706;23.328;2023-03-01T02:42:50;-13059.81;;;-142.93;100.00
10840;BME280;5473;42.706;23.328;2023-03-01T02:45:18;-13059.81;;;-142.93;100.00
10840;BME280;5473;42.706;23.328;2023-03-01T02:47:45;-13059.81;;;-142.93;100.00
10840;BME280;5473;42.706;23.328;2023-03-01T02:50:25;-13059.81;;;-142.93;100.00
10840;BME280;5473;42.706;23.328;2023-03-01T02:53:05;-13310.63;;;-142.93;100.00
10840;BME280;5473;42.706;23.328;2023-03-01T02:55:36;-13310.63;;;-142.93;100.00
10840;BME280;5473;42.706;23.328;2023-03-01T02:58:04;-13059.81;;;-142.93;100.00
10840;BME280;5473;42.706;23.328;2023-03-01T03:00:36;-13059.81;;;-142.93;100.00
10840;BME280;5473;42.706;23.328;2023-03-01T03:03:06;-13059.81;;;-142.93;100.00
10840;BME280;5473;42.706;23.328;2023-03-01T03:05:34;-13059.81;;;-142.93;100.00
10840;BME280;5473;42.706;23.328;2023-03-01T03:08:02;-13059.81;;;-142.93;100.00
10840;BME280;5473;42.706;23.328;2023-03-01T03:10:32;-13059.81;;;-142.93;100.00
10840;BME280;5473;42.706;23.328;2023-03-01T03:13:01;-13059.81;;;-142.93;100.00
10840;BME280;5473;42.706;23.328;2023-03-01T03:15:29;-13059.81;;;-142.93;100.00
10840;BME280;5473;42.706;23.328;2023-03-01T03:17:58;-13059.81;;;-142.93;100.00
10840;BME280;5473;42.706;23.328;2023-03-01T03:20:27;-12808.97;;;-142.93;100.00
10840;BME280;5473;42.706;23.328;2023-03-01T03:22:55;-12808.97;;;-142.93;100.00
10840;BME280;5473;42.706;23.328;2023-03-01T03:25:24;-12808.97;;;-142.93;100.00
10840;BME280;5473;42.706;23.328;2023-03-01T03:27:52;-12808.97;;;-142.93;100.00
10840;BME280;5473;42.706;23.328;2023-03-01T03:30:23;-12808.97;;;-142.93;100.00
10840;BME280;5473;42.706;23.328;2023-03-01T03:32:51;-12808.97;;;-142.93;100.00
10840;BME280;5473;42.706;23.328;2023-03-01T03:35:21;-12808.97;;;-142.93;100.00
10840;BME280;5473;42.706;23.328;2023-03-01T03:37:48;-12808.97;;;-142.93;100.00
10840;BME280;5473;42.706;23.328;2023-03-01T03:40:33;-12808.97;;;-142.93;100.00
10840;BME280;5473;42.706;23.328;2023-03-01T03:43:01;-12808.97;;;-142.93;100.00
10840;BME280;5473;42.706;23.328;2023-03-01T03:45:28;-12808.97;;;-142.93;100.00
10840;BME280;5473;42.706;23.328;2023-03-01T03:47:54;-12808.97;;;-142.93;100.00
10840;BME280;5473;42.706;23.328;2023-03-01T03:50:22;-12808.97;;;-142.93;100.00
10840;BME280;5473;42.706;23.328;2023-03-01T03:52:49;-12808.97;;;-142.93;100.00
10840;BME280;5473;42.706;23.328;2023-03-01T03:55:16;-12808.97;;;-142.93;100.00
10840;BME280;5473;42.706;23.328;2023-03-01T03:57:45;-13059.81;;;-142.93;100.00
10840;BME280;5473;42.706;23.328;2023-03-01T04:00:18;-13059.81;;;-142.93;100.00
10840;BME280;5473;42.706;23.328;2023-03-01T04:02:46;-13059.81;;;-142.93;100.00
10840;BME280;5473;42.706;23.328;2023-03-01T04:05:16;-12808.97;;;-142.93;100.00
10840;BME280;5473;42.706;23.328;2023-03-01T04:07:45;-12808.97;;;-142.93;100.00
10840;BME280;5473;42.706;23.328;2023-03-01T04:10:16;-13059.81;;;-142.93;100.00
10840;BME280;5473;42.706;23.328;2023-03-01T04:12:43;-13059.81;;;-142.93;100.00
10840;BME280;5473;42.706;23.328;2023-03-01T04:15:11;-13059.81;;;-142.93;100.00
10840;BME280;5473;42.706;23.328;2023-03-01T04:17:43;-13059.81;;;-142.93;100.00
10840;BME280;5473;42.706;23.328;2023-03-01T04:20:12;-13059.81;;;-142.93;100.00
10840;BME280;5473;42.706;23.328;2023-03-01T04:22:40;-13059.81;;;-142.93;100.00
10840;BME280;5473;42.706;23.328;2023-03-01T04:25:08;-13059.81;;;-142.93;100.00
10840;BME280;5473;42.706;23.328;2023-03-01T04:27:39;-13059.81;;;-142.93;100.00
10840;BME280;5473;42.706;23.328;2023-03-01T04:30:07;-13059.81;;;-142.93;100.00
10840;BME280;5473;42.706;23.328;2023-03-01T04:32:34;-13059.81;;;-142.93;100.00
10840;BME280;5473;42.706;23.328;2023-03-01T04:35:01;-13059.81;;;-142.93;100.00
10840;BME280;5473;42.706;23.328;2023-03-01T04:37:28;-13059.81;;;-142.93;100.00
10840;BME280;5473;42.706;23.328;2023-03-01T04:39:55;-13059.81;;;-142.93;100.00
10840;BME280;5473;42.706;23.328;2023-03-01T04:42:23;-13059.81;;;-142.93;100.00
10840;BME280;5473;42.706;23.328;2023-03-01T04:44:49;-13059.81;;;-142.93;100.00
10840;BME280;5473;42.706;23.328;2023-03-01T04:47:16;-13059.81;;;-142.93;100.00
10840;BME280;5473;42.706;23.328;2023-03-01T04:49:43;-13059.81;;;-142.93;100.00
10840;BME280;5473;42.706;23.328;2023-03-01T04:52:10;-13059.81;;;-142.93;100.00
10840;BME280;5473;42.706;23.328;2023-03-01T04:54:37;-13059.81;;;-142.93;100.00
10840;BME280;5473;42.706;23.328;2023-03-01T04:57:03;-13059.81;;;-142.93;100.00
10840;BME280;5473;42.706;23.328;2023-03-01T04:59:32;-13059.81;;;-142.93;100.00
10840;BME280;5473;42.706;23.328;2023-03-01T05:01:58;-13059.81;;;-142.93;100.00
10840;BME280;5473;42.706;23.328;2023-03-01T05:04:26;-13310.63;;;-142.93;100.00
10840;BME280;5473;42.706;23.328;2023-03-01T05:06:52;-13310.63;;;-142.93;100.00
10840;BME280;5473;42.706;23.328;2023-03-01T05:09:19;-13310.63;;;-142.93;100.00
10840;BME280;5473;42.706;23.328;2023-03-01T05:11:46;-13310.63;;;-142.93;100.00
10840;BME280;5473;42.706;23.328;2023-03-01T05:14:13;-13310.63;;;-142.93;100.00
10840;BME280;5473;42.706;23.328;2023-03-01T05:16:41;-13310.63;;;-142.93;100.00
10840;BME280;5473;42.706;23.328;2023-03-01T05:19:08;-13310.63;;;-142.93;100.00
10840;BME280;5473;42.706;23.328;2023-03-01T05:21:40;-13310.63;;;-142.93;100.00
10840;BME280;5473;42.706;23.328;2023-03-01T05:24:21;-13310.63;;;-142.93;100.00
10840;BME280;5473;42.706;23.328;2023-03-01T05:26:48;-13310.63;;;-142.93;100.00
10840;BME280;5473;42.706;23.328;2023-03-01T05:29:15;-13310.63;;;-142.93;100.00
10840;BME280;5473;42.706;23.328;2023-03-01T05:31:43;-13310.63;;;-142.93;100.00
10840;BME280;5473;42.706;23.328;2023-03-01T05:34:10;-13310.63;;;-142.93;100.00
10840;BME280;5473;42.706;23.328;2023-03-01T05:36:38;-13310.63;;;-142.93;100.00
10840;BME280;5473;42.706;23.328;2023-03-01T05:39:05;-13310.63;;;-142.93;100.00
10840;BME280;5473;42.706;23.328;2023-03-01T05:41:31;-13310.63;;;-142.93;100.00
10840;BME280;5473;42.706;23.328;2023-03-01T05:43:58;-13310.63;;;-142.93;100.00
10840;BME280;5473;42.706;23.328;2023-03-01T05:46:25;-13310.63;;;-142.93;100.00
10840;BME280;5473;42.706;23.328;2023-03-01T05:48:53;-13310.63;;;-142.93;100.00
10840;BME280;5473;42.706;23.328;2023-03-01T05:51:20;-13310.63;;;-142.93;100.00
10840;BME280;5473;42.706;23.328;2023-03-01T05:53:47;-13059.81;;;-142.93;100.00
10840;BME280;5473;42.706;23.328;2023-03-01T05:56:14;-13310.63;;;-142.93;100.00
10840;BME280;5473;42.706;23.328;2023-03-01T05:58:40;-13310.63;;;-142.93;100.00
10840;BME280;5473;42.706;23.328;2023-03-01T06:01:11;-13310.63;;;-142.93;100.00
10840;BME280;5473;42.706;23.328;2023-03-01T06:03:38;-13310.63;;;-142.93;100.00
10840;BME280;5473;42.706;23.328;2023-03-01T06:06:06;-13310.63;;;-142.93;100.00
10840;BME280;5473;42.706;23.328;2023-03-01T06:08:33;-13310.63;;;-142.93;100.00
10840;BME280;5473;42.706;23.328;2023-03-01T06:11:00;-13310.63;;;-142.93;100.00
10840;BME280;5473;42.706;23.328;2023-03-01T06:13:26;-13059.81;;;-142.93;100.00
10840;BME280;5473;42.706;23.328;2023-03-01T06:15:53;-13059.81;;;-142.93;100.00
10840;BME280;5473;42.706;23.328;2023-03-01T06:18:20;-13310.63;;;-142.93;100.00
10840;BME280;5473;42.706;23.328;2023-03-01T06:20:52;-13310.63;;;-142.93;100.00
10840;BME280;5473;42.706;23.328;2023-03-01T06:23:20;-13310.63;;;-142.93;100.00
10840;BME280;5473;42.706;23.328;2023-03-01T06:25:47;-13310.63;;;-142.93;100.00
10840;BME280;5473;42.706;23.328;2023-03-01T06:28:14;-13059.81;;;-142.93;100.00
10840;BME280;5473;42.706;23.328;2023-03-01T06:30:41;-13059.81;;;-142.93;100.00
10840;BME280;5473;42.706;23.328;2023-03-01T06:33:08;-13059.81;;;-142.93;100.00
10840;BME280;5473;42.706;23.328;2023-03-01T06:35:35;-13059.81;;;-142.93;100.00
10840;BME280;5473;42.706;23.328;2023-03-01T06:38:03;-13059.81;;;-142.93;100.00
10840;BME280;5473;42.706;23.328;2023-03-01T06:40:32;-13059.81;;;-142.93;100.00
10840;BME280;5473;42.706;23.328;2023-03-01T06:43:00;-12808.97;;;-142.93;100.00
10840;BME280;5473;42.706;23.328;2023-03-01T06:45:27;-12558.09;;;-142.93;100.00
10840;BME280;5473;42.706;23.328;2023-03-01T06:48:01;-12558.09;;;-142.93;100.00
10840;BME280;5473;42.706;23.328;2023-03-01T06:50:29;-12307.22;;;-142.93;100.00
10840;BME280;5473;42.706;23.328;2023-03-01T06:52:56;-12056.34;;;-142.93;100.00
10840;BME280;5473;42.706;23.328;2023-03-01T06:55:22;-12056.34;;;-142.93;100.00
10840;BME280;5473;42.706;23.328;2023-03-01T06:57:55;-11805.41;;;-142.93;100.00
10840;BME280;5473;42.706;23.328;2023-03-01T07:00:23;-11805.41;;;-142.93;100.00
10840;BME280;5473;42.706;23.328;2023-03-01T07:02:49;-11303.53;;;-142.93;100.00
10840;BME280;5473;42.706;23.328;2023-03-01T07:05:16;-11303.53;;;-142.93;100.00
10840;BME280;5473;42.706;23.328;2023-03-01T07:07:43;-11554.47;;;-142.93;100.00
10840;BME280;5473;42.706;23.328;2023-03-01T07:10:11;-11554.47;;;-142.93;100.00
10840;BME280;5473;42.706;23.328;2023-03-01T07:12:38;-11554.47;;;-142.93;100.00
10840;BME280;5473;42.706;23.328;2023-03-01T07:15:09;-11805.41;;;-142.93;100.00
10840;BME280;5473;42.706;23.328;2023-03-01T07:17:36;-11554.47;;;-142.93;100.00
10840;BME280;5473;42.706;23.328;2023-03-01T07:20:03;-11554.47;;;-142.93;100.00
10840;BME280;5473;42.706;23.328;2023-03-01T07:22:30;-11554.47;;;-142.93;100.00
10840;BME280;5473;42.706;23.328;2023-03-01T07:24:57;-11805.41;;;-142.93;100.00
10840;BME280;5473;42.706;23.328;2023-03-01T07:27:24;-11554.47;;;-142.93;100.00
10840;BME280;5473;42.706;23.328;2023-03-01T07:29:50;-11303.53;;;-142.93;100.00
10840;BME280;5473;42.706;23.328;2023-03-01T07:32:18;-11303.53;;;-142.93;100.00
10840;BME280;5473;42.706;23.328;2023-03-01T07:34:45;-11303.53;;;-142.93;100.00
10840;BME280;5473;42.706;23.328;2023-03-01T07:37:12;-11052.53;;;-142.93;100.00
10840;BME280;5473;42.706;23.328;2023-03-01T07:39:39;-11052.53;;;-142.93;100.00
10840;BME280;5473;42.706;23.328;2023-03-01T07:42:05;-10550.53;;;-142.93;100.00
10840;BME280;5473;42.706;23.328;2023-03-01T07:44:32;-10299.50;;;-142.93;100.00
10840;BME280;5473;42.706;23.328;2023-03-01T07:46:59;-8792.91;;;-142.93;100.00
10840;BME280;5473;42.706;23.328;2023-03-01T07:49:28;-7536.88;;;-142.93;100.00
10840;BME280;5473;42.706;23.328;2023-03-01T07:51:54;-7285.59;;;-142.93;100.00
10840;BME280;5473;42.706;23.328;2023-03-01T07:54:21;-6029.00;;;-142.93;100.00
10840;BME280;5473;42.706;23.328;2023-03-01T07:56:48;-5023.34;;;-142.93;100.00
10840;BME280;5473;42.706;23.328;2023-03-01T07:59:15;-4771.91;;;-142.93;100.00
10840;BME280;5473;42.706;23.328;2023-03-01T08:01:42;-4771.91;;;-142.93;100.00
10840;BME280;5473;42.706;23.328;2023-03-01T08:04:08;-4771.91;;;-142.93;100.00
10840;BME280;5473;42.706;23.328;2023-03-01T08:06:37;-4771.91;;;-142.93;100.00
10840;BME280;5473;42.706;23.328;2023-03-01T08:09:04;-4771.91;;;-142.93;100.00
10840;BME280;5473;42.706;23.328;2023-03-01T08:11:30;-2759.53;;;-142.93;100.00
10840;BME280;5473;42.706;23.328;2023-03-01T08:13:57;-1752.88;;;-142.93;100.00
10840;BME280;5473;42.706;23.328;2023-03-01T08:16:24;-2004.56;;;-142.93;100.00
10840;BME280;5473;42.706;23.328;2023-03-01T08:18:51;-2507.91;;;-142.93;100.00
10840;BME280;5473;42.706;23.328;2023-03-01T08:21:18;-1752.88;;;-142.93;100.00
10840;BME280;5473;42.706;23.328;2023-03-01T08:23:46;-745.94;;;-142.93;100.00
10840;BME280;5473;42.706;23.328;2023-03-01T08:26:14;-997.69;;;-142.93;100.00
10840;BME280;5473;42.706;23.328;2023-03-01T08:28:42;-1501.19;;;-142.93;100.00
10840;BME280;5473;42.706;23.328;2023-03-01T08:31:17;-494.16;;;-142.93;100.00
10840;BME280;5473;42.706;23.328;2023-03-01T08:33:45;9.50;;;-142.93;100.00
10840;BME280;5473;42.706;23.328;2023-03-01T08:36:16;9.50;;;-142.93;100.00
10840;BME280;5473;42.706;23.328;2023-03-01T08:38:43;-745.94;;;-142.93;100.00
10840;BME280;5473;42.706;23.328;2023-03-01T08:41:12;-997.69;;;-142.93;100.00
10840;BME280;5473;42.706;23.328;2023-03-01T08:43:39;-1752.88;;;-142.93;100.00
10840;BME280;5473;42.706;23.328;2023-03-01T08:46:06;-1752.88;;;-142.93;100.00
10840;BME280;5473;42.706;23.328;2023-03-01T08:48:33;1520.84;;;-142.93;100.00
10840;BME280;5473;42.706;23.328;2023-03-01T08:51:07;1520.84;;;-142.93;100.00
10840;BME280;5473;42.706;23.328;2023-03-01T08:53:33;1268.91;;;-142.93;100.00
10840;BME280;5473;42.706;23.328;2023-03-01T08:56:00;1772.81;;;-142.93;100.00
10840;BME280;5473;42.706;23.328;2023-03-01T08:58:29;3284.97;;;-142.93;100.00
10840;BME280;5473;42.706;23.328;2023-03-01T09:00:56;3537.09;;;-142.93;100.00
10840;BME280;5473;42.706;23.328;2023-03-01T09:03:23;3537.09;;;-142.93;100.00
10840;BME280;5473;42.706;23.328;2023-03-01T09:05:50;4797.84;;;-142.93;100.00
10840;BME280;5473;42.706;23.328;2023-03-01T09:08:17;7068.47;;;-142.93;100.00
10840;BME280;5473;42.706;23.328;2023-03-01T09:10:44;6816.09;;;-142.93;100.00
10840;BME280;5473;42.706;23.328;2023-03-01T09:13:11;9088.09;;;-142.93;100.00
10840;BME280;5473;42.706;23.328;2023-03-01T09:15:39;10351.00;;;-142.93;100.00
10840;BME280;5473;42.706;23.328;2023-03-01T09:18:06;8835.56;;;-142.93;100.00
10840;BME280;5473;42.706;23.328;2023-03-01T09:20:33;8835.56;;;-142.93;100.00
10840;BME280;5473;42.706;23.328;2023-03-01T09:23:00;8835.56;;;-142.93;100.00
10840;BME280;5473;42.706;23.328;2023-03-01T09:25:27;7573.25;;;-142.93;100.00
10840;BME280;5473;42.706;23.328;2023-03-01T09:27:54;6563.75;;;-142.93;100.00
10840;BME280;5473;42.706;23.328;2023-03-01T09:30:22;5302.28;;;-142.93;100.00
10840;BME280;5473;42.706;23.328;2023-03-01T09:32:50;6311.41;;;-142.93;100.00
10840;BME280;5473;42.706;23.328;2023-03-01T09:35:18;8078.13;;;-142.93;100.00
10840;BME280;5473;42.706;23.328;2023-03-01T09:37:45;7573.25;;;-142.93;100.00
10840;BME280;5473;42.706;23.328;2023-03-01T09:40:15;4041.34;;;-142.93;100.00
10840;BME280;5473;42.706;23.328;2023-03-01T09:42:50;3032.91;;;-142.93;100.00
10840;BME280;5473;42.706;23.328;2023-03-01T09:45:26;4293.50;;;-142.93;100.00
10840;BME280;5473;42.706;23.328;2023-03-01T09:47:55;5554.56;;;-142.93;100.00
10840;BME280;5473;42.706;23.328;2023-03-01T09:50:22;6059.09;;;-142.93;100.00
10840;BME280;5473;42.706;23.328;2023-03-01T09:52:58;5554.56;;;-142.93;100.00
10840;BME280;5473;42.706;23.328;2023-03-01T09:55:31;6059.09;;;-142.93;100.00
10840;BME280;5473;42.706;23.328;2023-03-01T09:58:00;9340.63;;;-142.93;100.00
10840;BME280;5473;42.706;23.328;2023-03-01T10:00:33;12878.25;;;-142.93;100.00
10840;BME280;5473;42.706;23.328;2023-03-01T10:03:09;12878.25;;;-142.93;100.00
10840;BME280;5473;42.706;23.328;2023-03-01T10:05:49;15407.44;;;-142.93;100.00
10840;BME280;5473;42.706;23.328;2023-03-01T10:08:31;17938.56;;;-142.93;100.00
10840;BME280;5473;42.706;23.328;2023-03-01T10:11:02;19458.16;;;-142.93;100.00
10840;BME280;5473;42.706;23.328;2023-03-01T10:13:35;15660.47;;;-142.93;100.00
10840;BME280;5473;42.706;23.328;2023-03-01T10:16:09;14395.53;;;-142.93;100.00
10840;BME280;5473;42.706;23.328;2023-03-01T10:18:39;16672.75;;;-142.93;100.00
10840;BME280;5473;42.706;23.328;2023-03-01T10:21:14;13636.81;;;-142.93;100.00
10840;BME280;5473;42.706;23.328;2023-03-01T10:23:42;12625.44;;;-142.93;100.00
10840;BME280;5473;42.706;23.328;2023-03-01T10:26:27;12878.25;;;-142.93;100.00
10840;BME280;5473;42.706;23.328;2023-03-01T10:29:01;14901.44;;;-142.93;100.00
10840;BME280;5473;42.706;23.328;2023-03-01T10:31:38;19458.16;;;-142.93;100.00
10840;BME280;5473;42.706;23.328;2023-03-01T10:34:10;19458.16;;;-142.93;100.00
10840;BME280;5473;42.706;23.328;2023-03-01T10:36:39;20725.03;;;-142.93;100.00
10840;BME280;5473;42.706;23.328;2023-03-01T10:39:13;26273.25;;;-142.93;100.00
10840;BME280;5473;42.706;23.328;2023-03-01T10:41:56;20978.44;;;-142.93;100.00
10840;BME280;5473;42.706;23.328;2023-03-01T10:44:38;20978.44;;;-142.93;100.00
10840;BME280;5473;42.706;23.328;2023-03-01T10:47:11;23260.19;;;-142.93;100.00
10840;BME280;5473;42.706;23.328;2023-03-01T10:49:55;19458.16;;;-142.93;100.00
10840;BME280;5473;42.706;23.328;2023-03-01T10:52:24;20471.59;;;-142.93;100.00
10840;BME280;5473;42.706;23.328;2023-03-01T10:54:54;19964.84;;;-142.93;100.00
10840;BME280;5473;42.706;23.328;2023-03-01T10:57:36;19204.84;;;-142.93;100.00
10840;BME280;5473;42.706;23.328;2023-03-01T11:00:24;18191.78;;;-142.93;100.00
10840;BME280;5473;42.706;23.328;2023-03-01T11:03:03;20218.22;;;-142.93;100.00
10840;BME280;5473;42.706;23.328;2023-03-01T11:05:50;21992.38;;;-142.93;100.00
10840;BME280;5473;42.706;23.328;2023-03-01T11:08:29;23260.19;;;-142.93;100.00
10840;BME280;5473;42.706;23.328;2023-03-01T11:11:05;21992.38;;;-142.93;100.00
10840;BME280;5473;42.706;23.328;2023-03-01T11:13:33;21485.38;;;-142.93;100.00
10840;BME280;5473;42.706;23.328;2023-03-01T11:16:01;16925.88;;;-142.93;100.00
10840;BME280;5473;42.706;23.328;2023-03-01T11:18:30;16925.88;;;-142.93;100.00
10840;BME280;5473;42.706;23.328;2023-03-01T11:21:01;20725.03;;;-142.93;100.00
10840;BME280;5473;42.706;23.328;2023-03-01T11:23:30;21992.38;;;-142.93;100.00
10840;BME280;5473;42.706;23.328;2023-03-01T11:26:00;22753.00;;;-142.93;100.00
10840;BME280;5473;42.706;23.328;2023-03-01T11:28:29;23260.19;;;-142.93;100.00
10840;BME280;5473;42.706;23.328;2023-03-01T11:30:59;24597.88;;;-142.93;100.00
10840;BME280;5473;42.706;23.328;2023-03-01T11:33:34;24528.50;;;-142.93;100.00
10840;BME280;5473;42.706;23.328;2023-03-01T11:36:10;26886.09;;;-142.93;100.00
10840;BME280;5473;42.706;23.328;2023-03-01T11:38:39;25432.50;;;-142.93;100.00
10840;BME280;5473;42.706;23.328;2023-03-01T11:41:10;26146.31;;;-142.93;100.00
10840;BME280;5473;42.706;23.328;2023-03-01T11:43:47;29437.88;;;-142.93;100.00
10840;BME280;5473;42.706;23.328;2023-03-01T11:46:37;30178.38;;;-142.93;100.00
10840;BME280;5473;42.706;23.328;2023-03-01T11:49:21;30613.22;;;-142.93;100.00
10840;BME280;5473;42.706;23.328;2023-03-01T11:52:01;30182.34;;;-142.93;100.00
10840;BME280;5473;42.706;23.328;2023-03-01T11:54:40;31008.41;;;-142.93;100.00
10840;BME280;5473;42.706;23.328;2023-03-01T11:57:18;32671.09;;;-142.93;100.00
10840;BME280;5473;42.706;23.328;2023-03-01T12:00:10;30464.31;;;-142.93;100.00
10840;BME280;5473;42.706;23.328;2023-03-01T12:02:58;24021.13;;;-142.93;100.00
10840;BME280;5473;42.706;23.328;2023-03-01T12:05:50;23006.59;;;-142.93;100.00
10840;BME280;5473;42.706;23.328;2023-03-01T12:08:29;23513.81;;;-142.93;100.00
10840;BME280;5473;42.706;23.328;2023-03-01T12:11:03;23767.47;;;-142.93;100.00
10840;BME280;5473;42.706;23.328;2023-03-01T12:14:02;22499.44;;;-142.93;100.00
10840;BME280;5473;42.706;23.328;2023-03-01T12:16:53;21485.38;;;-142.93;100.00
10840;BME280;5473;42.706;23.328;2023-03-01T12:19:36;25963.88;;;-142.93;100.00
10840;BME280;5473;42.706;23.328;2023-03-01T12:22:30;23513.81;;;-142.93;100.00
10840;BME280;5473;42.706;23.328;2023-03-01T12:25:13;23513.81;;;-142.93;100.00
10840;BME280;5473;42.706;23.328;2023-03-01T12:30:59;24274.81;;;-142.93;100.00
10840;BME280;5473;42.706;23.328;2023-03-01T12:33:38;28048.63;;;-142.93;100.00
10840;BME280;5473;42.706;23.328;2023-03-01T12:36:31;31324.22;;;-142.93;100.00
10840;BME280;5473;42.706;23.328;2023-03-01T12:39:15;32359.16;;;-142.93;100.00
10840;BME280;5473;42.706;23.328;2023-03-01T12:41:52;30494.09;;;-142.93;100.00
10840;BME280;5473;42.706;23.328;2023-03-01T12:44:35;29916.31;;;-142.93;100.00